createdAt,value
2022-11-30T00:01:40.090Z,85.00
2022-11-30T00:04:08.315Z,78.07
2022-11-30T00:06:35.425Z,84.63
2022-11-30T00:09:02.363Z,86.47
2022-11-30T00:11:37.288Z,91.72
2022-11-30T00:17:21.610Z,77.90
2022-11-30T00:19:53.151Z,87.43
2022-11-30T00:23:16.026Z,90.15
2022-11-30T00:29:13.653Z,91.97
2022-11-30T00:31:43.911Z,86.65
2022-11-30T04:20:31.700Z,30.60
2022-11-30T04:23:24.621Z,29.65
2022-11-30T04:26:49.213Z,30.77
2022-11-30T04:41:20.230Z,24.67
2022-11-30T04:43:51.632Z,29.83
2022-11-30T04:46:30.342Z,30.83
2022-11-30T04:51:55.799Z,26.57
2022-11-30T04:54:48.091Z,29.33
2022-11-30T04:57:48.122Z,32.75
2022-11-30T05:03:47.955Z,35.80
2022-11-30T05:06:23.619Z,49.47
2022-11-30T05:09:18.655Z,46.88
2022-11-30T05:11:56.404Z,48.92
2022-11-30T05:14:44.140Z,46.17
2022-11-30T05:17:15.536Z,53.92
2022-11-30T05:20:04.350Z,41.35
2022-11-30T05:22:32.014Z,46.63
2022-11-30T05:45:35.563Z,49.33
2022-11-30T05:48:04.046Z,48.20
2022-11-30T05:50:31.393Z,47.50
2022-11-30T05:53:01.028Z,48.22
2022-11-30T05:55:47.845Z,45.97
2022-11-30T05:58:16.749Z,38.03
2022-11-30T06:00:43.646Z,43.78
2022-11-30T06:03:10.981Z,37.30
2022-11-30T06:08:30.231Z,42.28
2022-11-30T06:11:04.304Z,38.72
2022-11-30T06:14:24.634Z,43.70
2022-11-30T06:17:02.127Z,44.80
2022-11-30T06:19:28.919Z,47.85
2022-11-30T06:21:55.709Z,44.95
2022-11-30T06:24:22.502Z,47.85
2022-11-30T06:26:49.815Z,41.83
2022-11-30T06:29:16.664Z,40.08
2022-11-30T06:31:43.583Z,47.38
2022-11-30T06:34:10.425Z,48.53
2022-11-30T06:36:37.336Z,43.67
2022-11-30T06:39:04.515Z,51.40
2022-11-30T06:41:31.991Z,46.90
2022-11-30T06:43:59.451Z,57.42
2022-11-30T06:46:27.228Z,46.53
2022-11-30T06:48:55.088Z,41.40
2022-11-30T06:51:22.119Z,47.08
2022-11-30T06:53:48.944Z,51.13
2022-11-30T06:56:18.663Z,51.10
2022-11-30T06:58:45.826Z,48.72
2022-11-30T07:01:15.154Z,44.92
2022-11-30T07:03:45.708Z,48.75
2022-11-30T07:06:14.026Z,52.83
2022-11-30T07:08:41.276Z,50.42
2022-11-30T07:11:09.466Z,51.00
2022-11-30T07:13:36.848Z,58.78
2022-11-30T07:16:08.665Z,54.88
2022-11-30T07:18:37.347Z,59.38
2022-11-30T07:21:06.157Z,59.63
2022-11-30T07:23:56.606Z,57.75
2022-11-30T07:26:24.955Z,57.33
2022-11-30T07:28:58.560Z,55.25
2022-11-30T07:31:34.519Z,53.50
2022-11-30T07:34:07.215Z,52.00
2022-11-30T07:36:34.837Z,56.90
2022-11-30T07:39:02.107Z,56.75
2022-11-30T07:41:29.009Z,59.60
2022-11-30T07:43:55.973Z,61.20
2022-11-30T07:46:22.897Z,59.40
2022-11-30T07:48:50.330Z,56.13
2022-11-30T07:51:19.796Z,60.10
2022-11-30T07:53:46.962Z,61.60
2022-11-30T07:56:16.985Z,61.97
2022-11-30T07:58:44.160Z,68.70
2022-11-30T08:01:17.307Z,68.75
2022-11-30T08:03:44.319Z,67.30
2022-11-30T08:06:14.685Z,68.65
2022-11-30T08:08:43.949Z,72.10
2022-11-30T08:11:13.812Z,61.17
2022-11-30T08:13:40.985Z,61.20
2022-11-30T08:16:15.850Z,59.03
2022-11-30T08:18:43.300Z,62.10
2022-11-30T08:21:12.701Z,63.92
2022-11-30T08:23:41.688Z,58.70
2022-11-30T08:26:14.578Z,66.40
2022-11-30T08:28:44.096Z,67.43
2022-11-30T08:31:23.685Z,68.88
2022-11-30T08:33:54.317Z,71.57
2022-11-30T08:36:23.278Z,68.30
2022-11-30T08:38:50.351Z,58.05
2022-11-30T08:41:19.868Z,71.50
2022-11-30T08:43:47.235Z,65.10
2022-11-30T08:46:49.182Z,67.47
2022-11-30T08:49:20.805Z,61.92
2022-11-30T08:54:40.124Z,69.28
2022-11-30T08:57:07.060Z,72.00
2022-11-30T08:59:33.880Z,60.33
2022-11-30T09:02:01.152Z,64.72
2022-11-30T09:04:28.014Z,66.07
2022-11-30T09:06:59.165Z,68.70
2022-11-30T09:09:26.805Z,63.33
2022-11-30T09:11:53.708Z,64.75
2022-11-30T09:14:20.770Z,59.92
2022-11-30T09:16:47.877Z,65.75
2022-11-30T09:19:14.750Z,69.15
2022-11-30T09:21:45.447Z,64.70
2022-11-30T09:24:16.722Z,62.78
2022-11-30T09:26:44.009Z,62.85
2022-11-30T09:29:11.022Z,61.33
2022-11-30T09:31:37.923Z,65.63
2022-11-30T09:34:05.014Z,72.05
2022-11-30T09:36:33.132Z,67.38
2022-11-30T09:39:02.065Z,63.95
2022-11-30T09:41:29.069Z,71.45
2022-11-30T09:44:17.527Z,61.63
2022-11-30T09:47:09.397Z,60.35
2022-11-30T09:49:46.596Z,59.53
2022-11-30T09:52:25.844Z,63.92
2022-11-30T09:54:56.354Z,62.38
2022-11-30T09:57:50.821Z,65.20
2022-11-30T10:00:22.048Z,59.80
2022-11-30T10:02:50.683Z,62.67
2022-11-30T10:05:23.822Z,62.60
2022-11-30T10:08:06.199Z,61.97
2022-11-30T10:10:48.031Z,59.10
2022-11-30T10:13:49.277Z,62.60
2022-11-30T10:16:46.078Z,56.55
2022-11-30T10:19:46.959Z,62.75
2022-11-30T10:22:34.793Z,59.63
2022-11-30T10:25:23.682Z,60.10
2022-11-30T10:28:45.095Z,61.17
2022-11-30T10:31:04.011Z,60.58
2022-11-30T10:33:38.827Z,56.17
2022-11-30T10:36:28.426Z,56.95
2022-11-30T10:39:01.475Z,53.58
2022-11-30T10:44:08.121Z,52.17
2022-11-30T10:46:38.357Z,54.10
2022-11-30T10:49:08.250Z,54.85
2022-11-30T10:51:38.143Z,55.53
2022-11-30T10:54:15.501Z,61.17
2022-11-30T10:56:43.668Z,61.72
2022-11-30T10:59:50.298Z,58.67
2022-11-30T11:02:36.483Z,57.08
2022-11-30T11:05:22.871Z,47.78
2022-11-30T11:08:07.163Z,53.50
2022-11-30T11:10:46.814Z,53.58
2022-11-30T11:13:39.854Z,48.28
2022-11-30T11:16:12.661Z,53.25
2022-11-30T11:18:57.089Z,54.85
2022-11-30T11:21:25.669Z,54.60
2022-11-30T11:23:57.583Z,49.17
2022-11-30T11:26:28.851Z,47.25
2022-11-30T11:28:57.419Z,51.67
2022-11-30T11:34:27.582Z,50.85
2022-11-30T11:37:10.947Z,43.78
2022-11-30T11:42:19.137Z,45.72
2022-11-30T11:44:58.331Z,44.95
2022-11-30T11:47:37.101Z,42.03
2022-11-30T11:50:07.122Z,44.85
2022-11-30T11:52:36.936Z,45.55
2022-11-30T11:55:06.823Z,42.28
2022-11-30T11:57:40.710Z,40.60
2022-11-30T12:00:21.271Z,44.80
2022-11-30T12:02:59.186Z,38.72
2022-11-30T12:05:36.684Z,40.35
2022-11-30T12:08:24.436Z,39.83
2022-11-30T12:11:09.757Z,40.08
2022-11-30T12:13:42.498Z,34.88
2022-11-30T12:16:49.224Z,34.88
2022-11-30T12:19:25.203Z,36.17
2022-11-30T12:22:15.398Z,39.75
2022-11-30T12:25:40.726Z,34.15
2022-11-30T12:28:32.657Z,34.58
2022-11-30T12:31:17.362Z,37.67
2022-11-30T12:34:06.151Z,35.55
2022-11-30T12:37:05.140Z,33.63
2022-11-30T12:39:50.208Z,35.22
2022-11-30T12:42:28.530Z,33.95
2022-11-30T12:44:55.403Z,34.88
2022-11-30T12:47:59.154Z,36.58
2022-11-30T12:53:16.564Z,31.10
2022-11-30T12:55:48.771Z,34.35
2022-11-30T12:58:39.368Z,32.28
2022-11-30T13:01:09.320Z,36.50
2022-11-30T13:03:42.840Z,34.35
2022-11-30T13:06:23.276Z,33.78
2022-11-30T13:09:20.811Z,34.58
2022-11-30T13:11:55.434Z,29.33
2022-11-30T13:14:24.360Z,34.75
2022-11-30T13:16:59.667Z,31.48
2022-11-30T13:19:47.359Z,33.00
2022-11-30T13:22:45.786Z,28.73
2022-11-30T13:26:07.816Z,31.40
2022-11-30T13:28:46.826Z,32.65
2022-11-30T13:31:30.765Z,28.85
2022-11-30T13:34:04.657Z,28.23
2022-11-30T13:36:40.112Z,29.67
2022-11-30T13:39:15.558Z,27.98
2022-11-30T13:42:06.591Z,26.20
2022-11-30T13:44:40.068Z,25.08
2022-11-30T13:47:20.326Z,26.98
2022-11-30T13:49:59.121Z,26.20
2022-11-30T13:53:02.940Z,22.27
2022-11-30T13:55:38.585Z,26.98
2022-11-30T13:58:10.804Z,27.40
2022-11-30T14:04:19.413Z,28.02
2022-11-30T14:07:02.539Z,23.40
2022-11-30T14:10:28.184Z,26.60
2022-11-30T14:13:11.330Z,19.80
2022-11-30T14:15:58.944Z,20.42
2022-11-30T14:18:45.163Z,16.33
2022-11-30T14:27:33.195Z,19.98
2022-11-30T14:30:16.267Z,19.75
2022-11-30T14:36:10.413Z,16.92
2022-11-30T14:39:00.695Z,16.63
2022-11-30T14:41:35.955Z,15.98
2022-11-30T14:44:14.199Z,15.40
2022-11-30T14:46:41.277Z,17.23
2022-11-30T14:49:21.110Z,17.85
2022-11-30T14:51:50.143Z,18.05
2022-11-30T14:54:39.497Z,17.17
2022-11-30T14:57:37.568Z,15.85
2022-11-30T15:00:43.584Z,18.33
2022-11-30T15:03:26.837Z,20.33
2022-11-30T15:06:04.231Z,19.75
2022-11-30T15:08:50.152Z,20.02
2022-11-30T15:11:17.891Z,18.35
2022-11-30T15:13:48.113Z,21.15
2022-11-30T15:16:25.108Z,17.95
2022-11-30T15:18:53.583Z,15.88
2022-11-30T15:21:24.192Z,16.58
2022-11-30T15:23:53.157Z,17.25
2022-11-30T15:26:24.469Z,16.50
2022-11-30T15:29:03.552Z,15.93
2022-11-30T15:31:39.599Z,13.73
2022-11-30T15:34:21.170Z,16.00
2022-11-30T15:36:48.301Z,16.25
2022-11-30T15:39:23.140Z,19.70
2022-11-30T15:41:58.493Z,18.73
2022-11-30T15:44:47.695Z,15.18
2022-11-30T15:47:37.249Z,15.50
2022-11-30T15:50:30.620Z,18.90
2022-11-30T15:53:03.679Z,15.80
2022-11-30T15:58:31.459Z,16.40
2022-11-30T16:01:05.501Z,15.77
2022-11-30T16:03:59.823Z,14.93
2022-11-30T16:06:32.851Z,16.88
2022-11-30T16:09:07.628Z,19.27
2022-11-30T16:11:35.655Z,12.88
2022-11-30T16:14:02.829Z,14.63
2022-11-30T16:16:33.976Z,12.38
2022-11-30T16:19:02.047Z,14.82
2022-11-30T16:21:29.061Z,13.13
2022-11-30T16:23:55.990Z,12.32
2022-11-30T16:26:49.453Z,13.45
2022-11-30T16:38:10.106Z,12.48
2022-11-30T16:40:39.220Z,11.45
2022-11-30T16:43:06.450Z,14.30
2022-11-30T16:45:36.127Z,11.73
2022-11-30T16:48:03.203Z,14.05
2022-11-30T16:50:31.551Z,10.85
2022-11-30T16:52:58.850Z,16.00
2022-11-30T16:55:30.692Z,14.05
2022-11-30T16:57:58.715Z,12.23
2022-11-30T17:00:25.748Z,16.60
2022-11-30T17:03:00.449Z,12.35
2022-11-30T17:05:27.679Z,14.65
2022-11-30T17:07:55.230Z,14.80
2022-11-30T17:10:22.428Z,14.40
2022-11-30T17:12:52.140Z,16.02
2022-11-30T17:15:23.554Z,13.40
2022-11-30T17:17:51.328Z,12.30
2022-11-30T17:20:18.615Z,12.60
2022-11-30T17:22:45.768Z,10.95
2022-11-30T17:25:16.432Z,11.30
2022-11-30T17:27:43.685Z,12.80
2022-11-30T17:30:12.081Z,15.57
2022-11-30T17:32:41.333Z,10.55
2022-11-30T17:35:11.923Z,10.70
2022-11-30T17:37:39.023Z,11.73
2022-11-30T17:40:07.315Z,10.73
2022-11-30T17:42:34.316Z,10.00
2022-11-30T17:45:01.220Z,10.48
2022-11-30T17:47:28.141Z,13.43
2022-11-30T17:49:55.182Z,15.88
2022-11-30T17:52:22.135Z,12.18
2022-11-30T17:54:49.285Z,13.70
2022-11-30T17:59:42.086Z,12.82
2022-11-30T18:02:11.809Z,13.85
2022-11-30T18:04:40.124Z,13.73
2022-11-30T18:07:07.082Z,14.77
2022-11-30T18:09:37.949Z,14.68
2022-11-30T18:12:07.914Z,14.10
2022-11-30T18:14:34.933Z,12.50
2022-11-30T18:17:01.839Z,14.98
2022-11-30T18:19:28.751Z,16.45
2022-11-30T18:21:55.703Z,17.75
2022-11-30T18:24:25.249Z,15.73
2022-11-30T18:26:53.197Z,17.83
2022-11-30T18:29:20.249Z,15.20
2022-11-30T18:31:48.584Z,12.45
2022-11-30T18:34:15.727Z,12.05
2022-11-30T18:36:42.805Z,14.55
2022-11-30T18:39:09.907Z,13.10
2022-11-30T18:41:37.032Z,14.38
2022-11-30T18:44:04.902Z,12.40
2022-11-30T18:46:31.861Z,13.18
2022-11-30T18:48:59.687Z,13.75
2022-11-30T18:51:29.212Z,11.68
2022-11-30T18:54:04.577Z,14.48
2022-11-30T18:56:34.456Z,17.17
2022-11-30T18:59:03.643Z,14.70
2022-11-30T19:01:31.468Z,14.02
2022-11-30T19:04:01.584Z,13.68
2022-11-30T19:06:30.197Z,11.77
2022-11-30T19:08:57.587Z,14.05
2022-11-30T19:11:24.751Z,13.25
2022-11-30T19:13:58.604Z,13.75
2022-11-30T19:16:26.692Z,15.80
2022-11-30T19:18:54.100Z,11.88
2022-11-30T19:21:22.244Z,11.55
2022-11-30T19:23:50.067Z,13.70
2022-11-30T19:26:17.329Z,10.18
2022-11-30T19:28:45.339Z,10.18
2022-11-30T19:31:17.643Z,10.73
2022-11-30T19:33:47.454Z,10.63
2022-11-30T19:36:17.045Z,8.88
2022-11-30T19:38:44.251Z,9.57
2022-11-30T19:41:12.884Z,11.30
2022-11-30T19:43:40.132Z,12.23
2022-11-30T19:46:12.747Z,10.20
2022-11-30T19:48:40.371Z,14.18
2022-11-30T19:51:13.352Z,13.45
2022-11-30T19:53:44.043Z,13.32
2022-11-30T19:56:14.225Z,13.85
2022-11-30T19:58:44.747Z,14.77
2022-11-30T20:01:16.644Z,15.65
2022-11-30T20:03:46.960Z,15.25
2022-11-30T20:06:13.799Z,15.00
2022-11-30T20:08:41.702Z,15.27
2022-11-30T20:11:10.138Z,12.90
2022-11-30T20:13:37.919Z,17.63
2022-11-30T20:16:09.665Z,15.43
2022-11-30T20:18:40.090Z,16.55
2022-11-30T20:23:44.726Z,18.40
2022-11-30T20:26:35.658Z,19.13
2022-11-30T20:29:04.169Z,22.13
2022-11-30T20:31:32.362Z,17.98
2022-11-30T20:33:59.608Z,22.52
2022-11-30T20:36:26.727Z,20.75
2022-11-30T20:38:54.326Z,21.92
2022-11-30T20:41:24.765Z,25.48
2022-11-30T20:43:52.269Z,23.88
2022-11-30T20:46:36.309Z,23.60
2022-11-30T20:49:09.331Z,24.33
2022-11-30T20:51:36.190Z,24.92
2022-11-30T20:54:06.743Z,23.92
2022-11-30T20:56:35.380Z,23.92
2022-11-30T20:59:03.831Z,33.80
2022-11-30T21:01:30.834Z,27.67
2022-11-30T21:03:59.631Z,37.78
2022-11-30T21:06:27.570Z,35.75
2022-11-30T21:08:54.408Z,34.33
2022-11-30T21:11:21.800Z,37.63
2022-11-30T21:13:50.096Z,45.10
2022-11-30T21:16:24.017Z,50.15
2022-11-30T21:18:52.707Z,59.67
2022-11-30T21:21:22.653Z,65.50
2022-11-30T21:23:50.405Z,38.83
2022-11-30T21:26:22.353Z,43.92
2022-11-30T21:28:50.393Z,39.03
2022-11-30T21:31:17.557Z,39.75
2022-11-30T21:33:52.403Z,43.00
2022-11-30T21:36:20.524Z,57.33
2022-11-30T21:38:47.432Z,45.55
2022-11-30T21:41:15.398Z,37.50
2022-11-30T21:43:42.635Z,44.53
2022-11-30T21:46:13.292Z,55.85
2022-11-30T21:48:41.345Z,62.33
2022-11-30T21:51:13.179Z,52.95
2022-11-30T21:53:42.544Z,77.00
2022-11-30T21:56:12.787Z,71.47
2022-11-30T21:58:41.322Z,55.67
2022-11-30T22:01:11.001Z,85.80
2022-11-30T22:03:38.112Z,85.82
2022-11-30T22:06:07.324Z,59.47
2022-11-30T22:08:35.148Z,43.75
2022-11-30T22:11:12.262Z,45.65
2022-11-30T22:13:39.684Z,43.15
2022-11-30T22:16:09.552Z,35.42
2022-11-30T22:18:36.810Z,41.00
2022-11-30T22:21:06.659Z,38.13
2022-11-30T22:23:34.354Z,40.38
2022-11-30T22:26:22.498Z,44.80
2022-11-30T22:28:51.996Z,44.65
2022-11-30T22:31:20.635Z,36.63
2022-11-30T22:33:48.126Z,35.60
2022-11-30T22:36:21.895Z,31.70
2022-11-30T22:38:53.302Z,25.92
2022-11-30T22:41:20.238Z,40.58
2022-11-30T22:43:47.530Z,27.30
2022-11-30T22:46:21.238Z,27.50
2022-11-30T22:48:48.781Z,32.15
2022-11-30T22:51:19.105Z,25.92
2022-11-30T22:53:47.956Z,23.40
2022-11-30T22:56:17.667Z,29.00
2022-11-30T22:58:45.360Z,22.70
2022-11-30T23:01:17.364Z,18.83
2022-11-30T23:03:45.596Z,25.42
2022-11-30T23:06:13.683Z,25.70
2022-11-30T23:08:40.624Z,24.95
2022-11-30T23:11:12.507Z,17.02
2022-11-30T23:13:40.749Z,21.45
2022-11-30T23:16:09.154Z,24.13
2022-11-30T23:18:42.263Z,19.88
2022-11-30T23:23:37.080Z,19.20
2022-11-30T23:26:18.969Z,21.55
2022-11-30T23:28:47.243Z,20.65
2022-11-30T23:31:32.275Z,22.08
2022-11-30T23:34:00.392Z,19.15
2022-11-30T23:36:27.294Z,18.85
2022-11-30T23:38:59.190Z,20.75
2022-11-30T23:41:26.300Z,19.58
2022-11-30T23:43:53.669Z,21.85
2022-11-30T23:46:21.072Z,18.98
2022-11-30T23:48:48.070Z,18.30
2022-11-30T23:51:15.029Z,19.77
2022-11-30T23:53:41.890Z,18.42
2022-11-30T23:56:14.303Z,19.60
2022-11-30T23:58:41.530Z,21.20
